Time;durP1;ratioP1;P1;durP2;ratioP2;P2;SDS_P1;SDS_P2;PMS_P1;PMS_P2;Temp;Humidity;BMP_temperature;BMP_pressure;BME280_temperature;BME280_humidity;BME280_pressure;Samples;Min_cycle;Max_cycle;Signal;HPM_P1;HPM_P2
2021/03/21 00:00:59;;;;;;;7.07;2.87;;;6.60;50.60;;;;;;5048908;28;20458;-40
2021/03/21 00:03:29;;;;;;;6.47;3.83;;;6.60;50.60;;;;;;5051353;28;20943;-40
2021/03/21 00:05:55;;;;;;;9.50;4.70;;;6.50;50.70;;;;;;5053427;28;20466;-39
2021/03/21 00:08:24;;;;;;;9.03;4.70;;;6.50;50.70;;;;;;5051060;28;20465;-40
2021/03/21 00:10:54;;;;;;;7.40;4.80;;;6.60;50.60;;;;;;5050080;28;20455;-40
2021/03/21 00:13:23;;;;;;;7.13;4.77;;;6.50;50.60;;;;;;5048242;28;20470;-40
2021/03/21 00:15:51;;;;;;;7.43;3.90;;;6.50;50.80;;;;;;5053515;28;20484;-40
2021/03/21 00:18:19;;;;;;;9.07;4.23;;;6.50;51.00;;;;;;5048958;28;21148;-40
2021/03/21 00:20:49;;;;;;;6.80;4.70;;;6.60;52.60;;;;;;5049752;28;20969;-40
2021/03/21 00:23:17;;;;;;;5.93;3.97;;;6.50;52.50;;;;;;5051820;28;20981;-40
2021/03/21 00:25:44;;;;;;;4.30;3.20;;;6.50;52.70;;;;;;5053250;28;20550;-40
2021/03/21 00:28:16;;;;;;;5.83;3.83;;;6.50;52.90;;;;;;5051617;28;20446;-39
2021/03/21 00:30:45;;;;;;;5.73;3.90;;;6.50;53.00;;;;;;5052225;28;20852;-40
2021/03/21 00:33:13;;;;;;;4.47;3.30;;;6.50;53.40;;;;;;5050749;28;20892;-40
2021/03/21 00:35:40;;;;;;;4.13;3.73;;;6.50;54.00;;;;;;5049379;28;20494;-40
2021/03/21 00:38:14;;;;;;;6.17;2.97;;;6.50;54.30;;;;;;5049664;28;20451;-40
2021/03/21 00:40:41;;;;;;;5.13;3.70;;;6.50;54.30;;;;;;5051289;28;20853;-40
2021/03/21 00:43:08;;;;;;;8.53;3.60;;;6.50;54.30;;;;;;5051138;28;20455;-40
2021/03/21 00:45:36;;;;;;;5.30;4.03;;;6.50;54.20;;;;;;5048481;28;20466;-40
2021/03/21 00:48:03;;;;;;;4.43;3.90;;;6.50;54.20;;;;;;5050188;28;20892;-40
2021/03/21 00:50:33;;;;;;;4.77;4.23;;;6.50;54.50;;;;;;5050403;28;20467;-40
2021/03/21 00:53:00;;;;;;;5.00;3.23;;;6.50;55.30;;;;;;5050240;28;20461;-40
2021/03/21 00:55:26;;;;;;;4.70;3.63;;;6.60;55.10;;;;;;5050797;28;20517;-40
2021/03/21 00:57:53;;;;;;;6.13;3.77;;;6.60;53.70;;;;;;5051148;28;20464;-40
2021/03/21 01:00:27;;;;;;;5.10;3.70;;;6.60;54.00;;;;;;5049247;28;20451;-40
2021/03/21 01:02:57;;;;;;;6.50;4.23;;;6.50;54.20;;;;;;5049446;28;20458;-40
2021/03/21 01:05:39;;;;;;;6.27;3.30;;;6.50;53.80;;;;;;5051227;28;20450;-40
2021/03/21 01:08:30;;;;;;;3.93;3.37;;;6.50;53.70;;;;;;5049537;28;20458;-40
2021/03/21 01:11:15;;;;;;;6.80;3.60;;;6.50;54.00;;;;;;5051375;28;20635;-40
2021/03/21 01:13:43;;;;;;;5.47;3.30;;;6.50;54.00;;;;;;5050062;28;20978;-40
2021/03/21 01:16:34;;;;;;;3.83;3.00;;;6.50;54.10;;;;;;5048781;28;21024;-40
2021/03/21 01:19:02;;;;;;;4.03;3.17;;;6.50;54.20;;;;;;5057155;28;20479;-40
2021/03/21 01:21:30;;;;;;;3.97;3.47;;;6.50;55.00;;;;;;5065314;28;20458;-40
2021/03/21 01:24:00;;;;;;;3.63;3.30;;;6.50;54.90;;;;;;5051025;28;20458;-40
2021/03/21 01:26:29;;;;;;;4.87;3.10;;;6.50;54.50;;;;;;5064285;28;20868;-39
2021/03/21 01:28:58;;;;;;;5.00;3.40;;;6.50;54.50;;;;;;5052297;28;20461;-40
2021/03/21 01:31:25;;;;;;;5.80;3.83;;;6.50;54.60;;;;;;5053491;28;20545;-39
2021/03/21 01:33:52;;;;;;;5.63;3.80;;;6.50;54.80;;;;;;5066877;28;20454;-40
2021/03/21 01:36:29;;;;;;;4.03;3.63;;;6.40;55.10;;;;;;5049750;28;20550;-40
2021/03/21 01:38:57;;;;;;;4.60;3.30;;;6.50;55.40;;;;;;5048737;28;20454;-40
2021/03/21 01:41:29;;;;;;;4.90;3.90;;;6.50;55.50;;;;;;5047568;28;20454;-40
2021/03/21 01:43:55;;;;;;;4.93;3.90;;;6.50;55.40;;;;;;5051244;28;21027;-40
2021/03/21 01:46:54;;;;;;;6.00;4.40;;;6.50;54.30;;;;;;5048835;28;20454;-40
2021/03/21 01:49:27;;;;;;;7.00;5.00;;;6.40;55.00;;;;;;5032974;28;21464;-40
2021/03/21 01:51:57;;;;;;;9.30;4.27;;;6.40;55.80;;;;;;5049710;28;20825;-40
2021/03/21 01:54:24;;;;;;;6.67;4.83;;;6.40;56.40;;;;;;5066475;28;20491;-40
2021/03/21 01:56:53;;;;;;;5.97;4.73;;;6.40;57.00;;;;;;5064927;28;20458;-39
2021/03/21 01:59:28;;;;;;;3.83;3.20;;;6.40;57.60;;;;;;5028038;28;20466;-40
2021/03/21 02:01:57;;;;;;;5.90;4.57;;;6.50;57.60;;;;;;5061521;28;20529;-40
2021/03/21 02:04:24;;;;;;;5.17;4.00;;;6.40;57.60;;;;;;5050823;28;20505;-40
2021/03/21 02:07:08;;;;;;;5.30;4.40;;;6.40;57.80;;;;;;5064766;28;20579;-40
2021/03/21 02:10:00;;;;;;;5.23;3.20;;;6.40;57.80;;;;;;5050505;28;20463;-40
2021/03/21 02:12:49;;;;;;;6.03;4.87;;;6.40;57.80;;;;;;5047707;28;20467;-40
2021/03/21 02:15:34;;;;;;;5.33;3.70;;;6.30;57.70;;;;;;5048713;28;20557;-40
2021/03/21 02:18:23;;;;;;;4.50;3.77;;;6.30;57.50;;;;;;5067753;28;20562;-40
2021/03/21 02:21:11;;;;;;;4.60;4.10;;;6.30;57.70;;;;;;5048450;28;20469;-40
2021/03/21 02:23:52;;;;;;;8.90;4.40;;;6.30;59.00;;;;;;5047853;28;20830;-40
2021/03/21 02:26:45;;;;;;;6.20;4.00;;;6.30;59.60;;;;;;5047745;28;20549;-40
2021/03/21 02:29:50;;;;;;;5.77;4.63;;;6.40;59.70;;;;;;5063712;28;20451;-39
2021/03/21 02:32:45;;;;;;;4.87;3.80;;;6.40;59.90;;;;;;5037269;28;20959;-40
2021/03/21 02:35:31;;;;;;;8.17;4.60;;;6.40;59.60;;;;;;5048686;28;20577;-40
2021/03/21 02:38:00;;;;;;;6.43;4.50;;;6.30;59.60;;;;;;5048559;28;20963;-40
2021/03/21 02:40:44;;;;;;;6.50;4.53;;;6.40;59.90;;;;;;5066520;28;20951;-40
2021/03/21 02:43:26;;;;;;;6.20;4.20;;;6.30;59.80;;;;;;5049489;28;20810;-40
2021/03/21 02:45:57;;;;;;;5.43;4.73;;;6.30;59.70;;;;;;5064781;28;20458;-40
2021/03/21 02:48:33;;;;;;;5.73;4.67;;;6.30;59.70;;;;;;5049452;28;20463;-39
2021/03/21 02:51:25;;;;;;;7.50;4.70;;;6.30;59.50;;;;;;5049144;28;20484;-40
2021/03/21 02:54:16;;;;;;;7.87;4.27;;;6.40;59.30;;;;;;5045599;28;20551;-40
2021/03/21 02:56:47;;;;;;;11.07;5.50;;;6.40;59.00;;;;;;5049212;28;21012;-40
2021/03/21 02:59:26;;;;;;;8.97;5.60;;;6.40;59.10;;;;;;5047877;28;20485;-40
2021/03/21 03:02:09;;;;;;;10.90;6.90;;;6.40;59.30;;;;;;5049005;28;20459;-40
2021/03/21 03:04:43;;;;;;;9.53;7.20;;;6.40;59.30;;;;;;5048670;28;20846;-39
2021/03/21 03:07:49;;;;;;;8.80;7.30;;;6.30;59.40;;;;;;5049122;28;20462;-40
2021/03/21 03:10:47;;;;;;;11.17;7.67;;;6.30;60.10;;;;;;5049992;28;20453;-39
2021/03/21 03:13:38;;;;;;;10.90;7.80;;;6.30;60.30;;;;;;5049449;28;20462;-40
2021/03/21 03:16:21;;;;;;;13.70;9.40;;;6.30;60.30;;;;;;5049381;28;20562;-39
2021/03/21 03:19:22;;;;;;;13.27;8.50;;;6.30;60.60;;;;;;5045710;28;20466;-40
2021/03/21 03:22:00;;;;;;;16.43;10.03;;;6.30;60.60;;;;;;5050244;28;20534;-39
2021/03/21 03:24:40;;;;;;;16.80;9.77;;;6.30;60.70;;;;;;5045464;28;20503;-39
2021/03/21 03:27:25;;;;;;;13.87;10.13;;;6.30;60.80;;;;;;5047254;28;20466;-40
2021/03/21 03:29:57;;;;;;;13.20;9.50;;;6.40;61.20;;;;;;5046530;28;20541;-40
2021/03/21 03:32:26;;;;;;;15.20;10.47;;;6.30;61.20;;;;;;5051895;28;20886;-40
2021/03/21 03:34:56;;;;;;;15.30;10.30;;;6.40;62.10;;;;;;5049333;28;20490;-39
2021/03/21 03:37:28;;;;;;;15.23;10.57;;;6.40;62.30;;;;;;5054281;28;20465;-40
2021/03/21 03:39:54;;;;;;;16.80;10.83;;;6.30;62.30;;;;;;5052459;28;20468;-39
2021/03/21 03:42:43;;;;;;;17.37;11.47;;;6.40;62.30;;;;;;5050385;28;20486;-40
2021/03/21 03:45:19;;;;;;;20.60;13.27;;;6.40;62.20;;;;;;5050789;28;20468;-40
2021/03/21 03:48:24;;;;;;;27.63;15.07;;;6.30;62.40;;;;;;5053863;28;20466;-40
2021/03/21 03:51:13;;;;;;;20.30;13.50;;;6.40;63.00;;;;;;5052448;28;21129;-40
2021/03/21 03:53:57;;;;;;;23.80;15.13;;;6.40;63.30;;;;;;5050924;28;20473;-41
2021/03/21 03:56:50;;;;;;;23.37;15.00;;;6.50;63.50;;;;;;5067006;28;20784;-41
2021/03/21 03:59:37;;;;;;;23.67;15.80;;;6.50;63.60;;;;;;5047467;28;20474;-42
2021/03/21 04:02:11;;;;;;;25.87;15.60;;;6.40;63.80;;;;;;5053011;28;20545;-41
2021/03/21 04:04:57;;;;;;;24.10;16.33;;;6.50;63.60;;;;;;5051454;28;20477;-42
2021/03/21 04:07:44;;;;;;;22.60;14.87;;;6.50;63.60;;;;;;5068755;28;20477;-42
2021/03/21 04:10:16;;;;;;;21.27;14.70;;;6.40;63.60;;;;;;5052002;28;20505;-41
2021/03/21 04:13:05;;;;;;;21.97;14.87;;;6.40;63.60;;;;;;5052713;28;20826;-42
2021/03/21 04:15:40;;;;;;;25.83;16.97;;;6.50;63.60;;;;;;5049828;28;20529;-42
2021/03/21 04:18:26;;;;;;;23.67;16.17;;;6.50;64.10;;;;;;5052380;28;20572;-41
2021/03/21 04:21:00;;;;;;;22.90;15.07;;;6.50;64.20;;;;;;5051051;28;20458;-42
2021/03/21 04:23:29;;;;;;;26.40;15.77;;;6.50;64.20;;;;;;5051215;28;20450;-42
2021/03/21 04:26:00;;;;;;;30.00;16.43;;;6.50;64.30;;;;;;5051631;28;20474;-41
2021/03/21 04:28:34;;;;;;;24.37;15.20;;;6.40;64.50;;;;;;5054634;28;20868;-42
2021/03/21 04:31:05;;;;;;;25.23;16.13;;;6.40;64.70;;;;;;5051613;28;21024;-41
2021/03/21 04:33:42;;;;;;;26.33;16.27;;;6.50;65.10;;;;;;5050818;28;20476;-41
2021/03/21 04:36:18;;;;;;;25.87;17.43;;;6.50;65.80;;;;;;5051301;28;20552;-42
2021/03/21 04:38:59;;;;;;;24.87;15.87;;;6.50;66.00;;;;;;5051454;28;20585;-42
2021/03/21 04:41:31;;;;;;;32.30;17.73;;;6.60;66.60;;;;;;5049877;28;20450;-42
2021/03/21 04:44:04;;;;;;;27.77;15.97;;;6.50;66.80;;;;;;5052676;28;20450;-42
2021/03/21 04:46:37;;;;;;;25.50;16.93;;;6.50;67.30;;;;;;5049765;28;20546;-40
2021/03/21 04:49:04;;;;;;;30.43;17.60;;;6.50;67.70;;;;;;5049691;28;20475;-42
2021/03/21 04:51:36;;;;;;;25.40;16.17;;;6.50;68.10;;;;;;5050106;28;21023;-42
2021/03/21 04:54:16;;;;;;;22.30;15.50;;;6.50;68.30;;;;;;5050029;28;20462;-42
2021/03/21 04:56:53;;;;;;;21.63;15.17;;;6.50;69.00;;;;;;5049806;28;20469;-40
2021/03/21 04:59:35;;;;;;;27.60;15.80;;;6.50;69.20;;;;;;5051405;28;20454;-42
2021/03/21 05:02:10;;;;;;;26.37;15.70;;;6.50;69.30;;;;;;5048980;28;20452;-42
2021/03/21 05:04:45;;;;;;;20.20;15.00;;;6.50;70.20;;;;;;5032895;28;20457;-42
2021/03/21 05:07:41;;;;;;;28.03;15.60;;;6.50;70.60;;;;;;5049718;28;21701;-42
2021/03/21 05:10:25;;;;;;;23.90;14.73;;;6.50;70.90;;;;;;5049057;28;20682;-41
2021/03/21 05:13:16;;;;;;;27.17;14.93;;;6.40;70.80;;;;;;5048738;28;20467;-42
2021/03/21 05:16:00;;;;;;;21.20;15.23;;;6.40;71.00;;;;;;5049429;28;20521;-41
2021/03/21 05:18:42;;;;;;;30.93;16.13;;;6.40;71.10;;;;;;5048669;28;20549;-41
2021/03/21 05:21:28;;;;;;;24.63;16.00;;;6.30;71.00;;;;;;5048800;28;20467;-42
2021/03/21 05:24:06;;;;;;;22.40;14.67;;;6.30;70.80;;;;;;5063659;28;20793;-42
2021/03/21 05:27:01;;;;;;;21.50;14.00;;;6.30;71.20;;;;;;5050386;28;20963;-41
2021/03/21 05:29:39;;;;;;;22.57;15.10;;;6.30;71.20;;;;;;5050565;28;21038;-42
2021/03/21 05:32:06;;;;;;;22.13;14.77;;;6.30;71.50;;;;;;5050612;28;20454;-42
2021/03/21 05:34:33;;;;;;;20.20;13.77;;;6.30;71.80;;;;;;5049812;28;21243;-42
2021/03/21 05:37:18;;;;;;;31.00;15.83;;;6.30;71.70;;;;;;5050840;28;20514;-42
2021/03/21 05:40:02;;;;;;;21.60;13.37;;;6.30;71.90;;;;;;5048408;28;20458;-41
2021/03/21 05:43:11;;;;;;;20.13;12.07;;;6.30;72.20;;;;;;5048743;28;20933;-42
2021/03/21 05:46:14;;;;;;;16.07;11.87;;;6.30;73.00;;;;;;5045267;28;21056;-41
2021/03/21 05:49:07;;;;;;;20.37;12.47;;;6.30;73.20;;;;;;5064855;28;20826;-40
2021/03/21 05:51:45;;;;;;;15.97;11.03;;;6.20;73.40;;;;;;5051724;28;20955;-42
2021/03/21 05:54:29;;;;;;;17.93;11.70;;;6.20;73.70;;;;;;5068209;28;20549;-42
2021/03/21 05:57:03;;;;;;;17.37;12.20;;;6.30;73.70;;;;;;5048282;28;20454;-42
2021/03/21 05:59:37;;;;;;;19.93;11.67;;;6.30;73.60;;;;;;5063134;28;20462;-42
2021/03/21 06:02:22;;;;;;;15.90;11.13;;;6.30;73.60;;;;;;5048398;28;20669;-41
2021/03/21 06:05:30;;;;;;;20.00;11.23;;;6.30;73.70;;;;;;5049910;28;20485;-42
2021/03/21 06:08:08;;;;;;;15.73;11.07;;;6.30;73.50;;;;;;5048691;28;21092;-41
2021/03/21 06:11:15;;;;;;;15.07;10.90;;;6.40;73.30;;;;;;5051027;28;20550;-41
2021/03/21 06:14:00;;;;;;;16.37;11.83;;;6.40;72.80;;;;;;5047531;28;20472;-42
2021/03/21 06:17:04;;;;;;;16.83;10.57;;;6.30;73.10;;;;;;5067476;28;20889;-42
2021/03/21 06:19:34;;;;;;;17.20;11.33;;;6.30;73.40;;;;;;5051024;28;20537;-42
2021/03/21 06:22:00;;;;;;;16.00;10.07;;;6.40;73.10;;;;;;5050354;28;20458;-42
2021/03/21 06:24:52;;;;;;;13.80;9.93;;;6.40;73.50;;;;;;5049281;28;21190;-42
2021/03/21 06:27:41;;;;;;;14.50;10.87;;;6.40;73.60;;;;;;5051023;28;20803;-41
2021/03/21 06:30:34;;;;;;;13.30;9.73;;;6.40;73.40;;;;;;5051201;28;20459;-41
2021/03/21 06:33:18;;;;;;;13.10;9.80;;;6.40;73.90;;;;;;5048793;28;20447;-41
2021/03/21 06:36:01;;;;;;;13.57;9.37;;;6.40;73.30;;;;;;5051083;28;20482;-42
2021/03/21 06:38:55;;;;;;;14.77;10.03;;;6.40;73.20;;;;;;5047893;28;20463;-42
2021/03/21 06:41:47;;;;;;;14.43;9.47;;;6.40;73.30;;;;;;5050181;28;20955;-41
2021/03/21 06:44:32;;;;;;;15.90;9.20;;;6.30;73.30;;;;;;5049493;28;20463;-41
2021/03/21 06:47:32;;;;;;;12.60;8.43;;;6.40;73.50;;;;;;5050441;28;20462;-41
2021/03/21 06:50:24;;;;;;;11.67;8.20;;;6.40;73.40;;;;;;5066507;28;20543;-41
2021/03/21 06:52:56;;;;;;;12.83;8.87;;;6.40;73.40;;;;;;5046204;28;20454;-42
2021/03/21 06:55:34;;;;;;;12.63;8.73;;;6.30;73.70;;;;;;5050640;28;20853;-42
2021/03/21 06:58:03;;;;;;;9.57;6.83;;;6.40;73.90;;;;;;5062612;28;20494;-42
2021/03/21 07:00:56;;;;;;;12.37;8.50;;;6.40;73.90;;;;;;5048287;28;20501;-41
2021/03/21 07:03:47;;;;;;;13.37;9.00;;;6.30;74.00;;;;;;5049378;28;20443;-41
2021/03/21 07:06:22;;;;;;;13.20;7.83;;;6.30;74.30;;;;;;5049110;28;20901;-41
2021/03/21 07:09:03;;;;;;;9.80;7.60;;;6.40;74.70;;;;;;5051056;28;20458;-42
2021/03/21 07:12:07;;;;;;;11.87;8.43;;;6.40;74.70;;;;;;5053210;28;20533;-41
2021/03/21 07:14:46;;;;;;;11.40;7.73;;;6.40;74.50;;;;;;5051153;28;20486;-42
2021/03/21 07:17:34;;;;;;;10.03;7.90;;;6.50;74.80;;;;;;5069454;28;20470;-41
2021/03/21 07:20:23;;;;;;;9.03;6.83;;;6.50;74.50;;;;;;5053749;28;20466;-41
2021/03/21 07:23:26;;;;;;;11.90;6.83;;;6.60;74.90;;;;;;5047392;28;20855;-42
2021/03/21 07:26:08;;;;;;;9.33;7.67;;;6.60;74.70;;;;;;5052785;28;20818;-41
2021/03/21 07:28:52;;;;;;;9.73;6.77;;;6.60;74.70;;;;;;5055341;28;20450;-41
2021/03/21 07:31:37;;;;;;;10.07;7.20;;;6.60;74.80;;;;;;5053903;28;20449;-40
2021/03/21 07:34:38;;;;;;;10.63;7.20;;;6.70;74.50;;;;;;5053636;28;20458;-42
2021/03/21 07:37:12;;;;;;;8.80;6.63;;;6.80;74.70;;;;;;5053086;28;20488;-42
2021/03/21 07:39:57;;;;;;;10.00;7.53;;;6.90;75.20;;;;;;5051580;28;20462;-42
2021/03/21 07:42:54;;;;;;;9.53;7.03;;;7.00;74.70;;;;;;5051982;28;20450;-42
2021/03/21 07:45:33;;;;;;;11.53;6.63;;;7.00;74.40;;;;;;5048722;28;20927;-41
2021/03/21 07:48:13;;;;;;;9.13;6.77;;;7.00;74.40;;;;;;5071104;28;20889;-41
2021/03/21 07:50:58;;;;;;;9.53;7.40;;;7.10;74.80;;;;;;5052828;28;20458;-42
2021/03/21 07:53:45;;;;;;;8.30;6.00;;;7.10;74.30;;;;;;5054333;28;20846;-42
2021/03/21 07:56:27;;;;;;;9.90;7.17;;;7.20;74.40;;;;;;5050221;28;21423;-42
2021/03/21 07:58:58;;;;;;;7.87;6.30;;;7.20;74.10;;;;;;5049641;28;20451;-41
2021/03/21 08:01:25;;;;;;;10.73;6.80;;;7.20;74.00;;;;;;5064638;28;20458;-42
2021/03/21 08:04:12;;;;;;;10.13;7.50;;;7.20;74.10;;;;;;5051982;28;20485;-42
2021/03/21 08:06:42;;;;;;;12.30;6.80;;;7.20;74.30;;;;;;5063532;28;20468;-41
2021/03/21 08:09:24;;;;;;;12.83;6.80;;;7.30;74.60;;;;;;5049529;28;20827;-42
2021/03/21 08:12:14;;;;;;;6.67;5.40;;;7.30;74.70;;;;;;5048919;28;20958;-42
2021/03/21 08:14:47;;;;;;;8.03;5.23;;;7.40;74.40;;;;;;5043415;28;20846;-41
2021/03/21 08:17:21;;;;;;;6.63;5.33;;;7.50;74.30;;;;;;5049794;28;20478;-40
2021/03/21 08:19:52;;;;;;;6.73;4.80;;;7.60;74.50;;;;;;5048090;28;20859;-42
2021/03/21 08:22:23;;;;;;;5.73;4.90;;;7.70;74.20;;;;;;5049525;28;20501;-41
2021/03/21 08:24:52;;;;;;;8.23;5.80;;;7.80;74.40;;;;;;5048352;28;20628;-41
2021/03/21 08:27:21;;;;;;;8.03;5.20;;;7.80;74.20;;;;;;5049763;28;20890;-41
2021/03/21 08:30:08;;;;;;;7.13;4.90;;;7.80;74.50;;;;;;5049575;28;20451;-42
2021/03/21 08:32:48;;;;;;;8.10;5.80;;;7.90;74.10;;;;;;5049994;28;20481;-42
2021/03/21 08:35:36;;;;;;;8.50;5.40;;;8.00;74.10;;;;;;5047942;28;20486;-42
2021/03/21 08:38:11;;;;;;;7.30;5.43;;;8.00;73.90;;;;;;5065784;28;20473;-42
2021/03/21 08:40:39;;;;;;;9.47;5.60;;;8.00;74.20;;;;;;5051764;28;20453;-42
2021/03/21 08:43:09;;;;;;;6.07;4.43;;;8.00;74.00;;;;;;5049855;28;20461;-42
2021/03/21 08:45:44;;;;;;;5.50;4.00;;;8.10;73.80;;;;;;5049452;28;20490;-42
2021/03/21 08:48:11;;;;;;;5.37;4.10;;;8.10;73.80;;;;;;5065628;28;20851;-42
2021/03/21 08:50:59;;;;;;;4.43;3.50;;;8.10;74.00;;;;;;5049583;28;20466;-42
2021/03/21 08:53:34;;;;;;;7.60;4.07;;;8.20;74.20;;;;;;5051617;28;20558;-41
2021/03/21 08:56:15;;;;;;;5.80;3.80;;;8.30;74.10;;;;;;5064891;28;20492;-42
2021/03/21 08:58:42;;;;;;;5.80;3.90;;;8.30;74.00;;;;;;5048216;28;20470;-42
2021/03/21 09:01:12;;;;;;;6.10;3.80;;;8.30;74.20;;;;;;5049759;28;20455;-42
2021/03/21 09:03:40;;;;;;;5.43;3.80;;;8.40;74.10;;;;;;5046579;28;20753;-41
2021/03/21 09:06:31;;;;;;;5.90;3.60;;;8.40;73.80;;;;;;5048423;28;20458;-42
2021/03/21 09:09:17;;;;;;;4.80;4.20;;;8.50;74.00;;;;;;5064441;28;20554;-42
2021/03/21 09:11:59;;;;;;;7.40;4.40;;;8.40;74.30;;;;;;5066224;28;20462;-42
2021/03/21 09:14:27;;;;;;;4.13;3.60;;;8.50;74.50;;;;;;5064724;28;20513;-42
2021/03/21 09:17:08;;;;;;;4.23;3.07;;;8.50;74.00;;;;;;5050657;28;20470;-42
2021/03/21 09:19:36;;;;;;;7.37;3.40;;;8.50;73.50;;;;;;5050907;28;20502;-42
2021/03/21 09:22:31;;;;;;;4.50;3.20;;;8.50;73.70;;;;;;5063494;28;20463;-42
2021/03/21 09:25:01;;;;;;;4.63;4.17;;;8.50;73.90;;;;;;5047186;28;20463;-41
2021/03/21 09:27:36;;;;;;;4.53;3.73;;;8.40;74.40;;;;;;5049634;28;20466;-42
2021/03/21 09:30:18;;;;;;;3.30;3.00;;;8.40;74.60;;;;;;5050228;28;20533;-42
2021/03/21 09:32:51;;;;;;;5.47;3.67;;;8.40;74.50;;;;;;5049284;28;20467;-41
2021/03/21 09:35:33;;;;;;;7.47;4.60;;;8.30;74.80;;;;;;5050095;28;21036;-42
2021/03/21 09:38:13;;;;;;;5.47;4.00;;;8.30;75.30;;;;;;5050578;28;20456;-42
2021/03/21 09:40:42;;;;;;;4.20;3.50;;;8.30;75.10;;;;;;5048867;28;20481;-43
2021/03/21 09:43:22;;;;;;;5.63;3.90;;;8.40;75.10;;;;;;5064881;28;20460;-42
2021/03/21 09:46:00;;;;;;;6.53;3.70;;;8.40;75.30;;;;;;5047227;28;20544;-42
2021/03/21 09:48:47;;;;;;;5.47;3.87;;;8.40;75.30;;;;;;5049418;28;20961;-42
2021/03/21 09:51:18;;;;;;;5.53;3.53;;;8.50;75.50;;;;;;5050939;28;20446;-42
2021/03/21 09:53:56;;;;;;;6.40;4.20;;;8.60;75.20;;;;;;5048544;28;20816;-44
2021/03/21 09:56:46;;;;;;;4.30;3.20;;;8.70;75.50;;;;;;5047156;28;20872;-44
2021/03/21 09:59:56;;;;;;;4.10;3.27;;;8.80;74.90;;;;;;5045537;28;20466;-44
2021/03/21 10:02:28;;;;;;;6.40;4.07;;;8.90;74.40;;;;;;5064684;28;20896;-42
2021/03/21 10:05:29;;;;;;;3.73;3.10;;;9.00;74.00;;;;;;5049017;28;20463;-43
2021/03/21 10:08:21;;;;;;;4.17;3.23;;;9.00;74.10;;;;;;5042199;28;20462;-44
2021/03/21 10:11:03;;;;;;;4.30;3.90;;;9.00;73.60;;;;;;5046926;28;20444;-44
2021/03/21 10:13:39;;;;;;;4.13;3.00;;;9.00;73.30;;;;;;5048742;28;20442;-43
2021/03/21 10:16:23;;;;;;;5.40;4.07;;;8.90;73.50;;;;;;5049088;28;20547;-44
2021/03/21 10:18:50;;;;;;;6.70;3.80;;;8.90;73.50;;;;;;5062170;28;20463;-44
2021/03/21 10:21:22;;;;;;;4.20;3.53;;;8.80;74.00;;;;;;5049111;28;20535;-44
2021/03/21 10:23:56;;;;;;;4.70;4.20;;;8.80;74.00;;;;;;5048838;28;20450;-44
2021/03/21 10:26:25;;;;;;;6.30;4.40;;;8.80;74.00;;;;;;5048363;28;20453;-44
2021/03/21 10:28:54;;;;;;;5.20;3.97;;;8.70;74.00;;;;;;5048419;28;20448;-44
2021/03/21 10:31:24;;;;;;;5.93;4.03;;;8.80;74.30;;;;;;5050834;28;20459;-44
2021/03/21 10:33:53;;;;;;;4.40;3.57;;;8.70;73.90;;;;;;5049076;28;20900;-44
2021/03/21 10:36:41;;;;;;;5.77;3.93;;;8.70;74.20;;;;;;5048180;28;20567;-44
2021/03/21 10:39:24;;;;;;;4.80;3.87;;;8.80;74.30;;;;;;5050394;28;20443;-44
2021/03/21 10:42:23;;;;;;;5.60;5.00;;;8.90;74.30;;;;;;5047986;28;20458;-44
2021/03/21 10:44:57;;;;;;;19.80;4.80;;;9.00;74.10;;;;;;5042875;28;20466;-43
2021/03/21 10:47:28;;;;;;;5.70;3.63;;;9.10;73.10;;;;;;5045003;28;20446;-44
2021/03/21 10:50:00;;;;;;;8.20;3.57;;;9.30;72.80;;;;;;5043873;28;20513;-43
2021/03/21 10:52:37;;;;;;;4.30;2.70;;;9.50;70.30;;;;;;5048932;28;20457;-43
2021/03/21 10:55:21;;;;;;;8.07;4.80;;;9.50;69.50;;;;;;5041768;28;20487;-44
2021/03/21 10:57:48;;;;;;;5.63;4.60;;;9.50;69.70;;;;;;5046372;28;20550;-44
2021/03/21 11:00:27;;;;;;;5.37;3.70;;;9.50;69.90;;;;;;5044554;28;20492;-43
2021/03/21 11:02:59;;;;;;;6.17;4.47;;;9.60;70.40;;;;;;5045008;28;20447;-44
2021/03/21 11:05:44;;;;;;;5.90;4.40;;;9.70;70.00;;;;;;5046415;28;20458;-44
2021/03/21 11:08:13;;;;;;;4.97;3.83;;;9.80;69.30;;;;;;5040943;28;20537;-44
2021/03/21 11:10:43;;;;;;;4.97;3.63;;;9.90;68.50;;;;;;5045728;28;21034;-43
2021/03/21 11:13:31;;;;;;;4.00;2.83;;;10.00;67.70;;;;;;5043652;28;20473;-43
2021/03/21 11:15:58;;;;;;;4.10;2.90;;;10.00;67.10;;;;;;5046875;28;20933;-44
2021/03/21 11:18:31;;;;;;;6.07;3.83;;;10.20;65.90;;;;;;5047890;28;20493;-43
2021/03/21 11:21:14;;;;;;;5.10;2.73;;;10.20;65.80;;;;;;5046194;28;20484;-42
2021/03/21 11:23:53;;;;;;;3.67;3.30;;;10.40;65.20;;;;;;5059547;28;20536;-43
2021/03/21 11:26:24;;;;;;;4.00;3.43;;;10.50;63.50;;;;;;5046848;28;20518;-43
2021/03/21 11:28:53;;;;;;;4.20;3.20;;;10.60;62.20;;;;;;5048387;28;20545;-44
2021/03/21 11:31:50;;;;;;;5.93;3.90;;;10.60;62.50;;;;;;5048702;28;20455;-44
2021/03/21 11:34:33;;;;;;;7.03;4.63;;;10.60;63.10;;;;;;5043957;28;21028;-43
2021/03/21 11:37:15;;;;;;;3.80;3.43;;;10.40;63.10;;;;;;5045828;28;20480;-42
2021/03/21 11:39:47;;;;;;;4.03;3.40;;;10.40;63.40;;;;;;5046580;28;20457;-43
2021/03/21 11:42:21;;;;;;;6.70;3.73;;;10.50;63.10;;;;;;5047666;28;20453;-43
2021/03/21 11:44:51;;;;;;;4.20;3.77;;;10.80;62.30;;;;;;5045440;28;20455;-43
2021/03/21 11:47:31;;;;;;;5.30;4.07;;;11.00;61.40;;;;;;5058430;28;21024;-44
2021/03/21 11:50:00;;;;;;;3.30;3.00;;;11.20;60.80;;;;;;5045494;28;20451;-43
2021/03/21 11:52:27;;;;;;;3.97;3.67;;;11.40;60.00;;;;;;5063241;28;20959;-44
2021/03/21 11:54:54;;;;;;;4.30;3.63;;;11.50;59.40;;;;;;5062188;28;20461;-43
2021/03/21 11:57:55;;;;;;;5.07;4.27;;;11.60;59.60;;;;;;5050271;28;20927;-44
2021/03/21 12:00:29;;;;;;;4.63;3.20;;;11.80;58.50;;;;;;5050262;28;20486;-44
2021/03/21 12:03:06;;;;;;;3.63;3.33;;;12.00;56.90;;;;;;5064821;28;20470;-44
2021/03/21 12:05:37;;;;;;;3.50;3.20;;;12.00;56.30;;;;;;5062614;28;21069;-43
2021/03/21 12:08:24;;;;;;;3.73;3.43;;;11.80;56.90;;;;;;5063905;28;20549;-43
2021/03/21 12:10:55;;;;;;;3.50;3.20;;;11.80;56.60;;;;;;5049841;28;20451;-43
2021/03/21 12:13:38;;;;;;;4.87;3.13;;;11.70;56.90;;;;;;5066754;28;20457;-42
2021/03/21 12:16:50;;;;;;;4.73;3.53;;;11.70;56.50;;;;;;5049536;28;20514;-43
2021/03/21 12:19:23;;;;;;;3.20;2.90;;;11.70;56.40;;;;;;5045812;28;20481;-43
2021/03/21 12:22:04;;;;;;;3.10;2.60;;;11.60;54.70;;;;;;5051690;28;20951;-42
2021/03/21 12:24:32;;;;;;;4.90;2.90;;;11.50;54.60;;;;;;5051463;28;20670;-44
2021/03/21 12:27:05;;;;;;;4.77;2.60;;;11.50;54.40;;;;;;5050604;28;20465;-44
2021/03/21 12:29:44;;;;;;;3.30;3.00;;;11.60;54.20;;;;;;5049655;28;20461;-43
2021/03/21 12:32:28;;;;;;;3.87;2.83;;;11.60;54.40;;;;;;5049184;28;20451;-44
2021/03/21 12:34:57;;;;;;;5.20;3.70;;;11.60;54.10;;;;;;5049303;28;20451;-44
2021/03/21 12:37:26;;;;;;;5.10;3.20;;;11.50;55.00;;;;;;5047770;28;20537;-44
2021/03/21 12:40:11;;;;;;;3.50;2.87;;;11.40;54.70;;;;;;5055031;28;20525;-43
2021/03/21 12:42:42;;;;;;;3.50;3.20;;;11.50;55.60;;;;;;5047182;28;20488;-43
2021/03/21 12:45:17;;;;;;;3.73;3.43;;;11.50;56.00;;;;;;5048198;28;20450;-43
2021/03/21 12:47:52;;;;;;;3.10;2.57;;;11.60;55.70;;;;;;5061754;28;20546;-44
2021/03/21 12:50:33;;;;;;;3.93;3.53;;;11.60;54.80;;;;;;5047888;28;20493;-43
2021/03/21 12:53:00;;;;;;;3.40;2.97;;;11.60;55.00;;;;;;5051019;28;20464;-43
2021/03/21 12:55:27;;;;;;;3.77;3.00;;;11.60;55.50;;;;;;5049126;28;20485;-44
2021/03/21 12:57:54;;;;;;;3.20;2.90;;;11.60;54.80;;;;;;5050636;28;20941;-44
2021/03/21 13:00:27;;;;;;;4.03;3.33;;;11.60;55.00;;;;;;5049197;28;20453;-42
2021/03/21 13:02:55;;;;;;;3.43;3.13;;;11.80;55.00;;;;;;5050335;28;20451;-42
2021/03/21 13:05:25;;;;;;;3.93;3.53;;;12.00;54.00;;;;;;5049397;28;20454;-44
2021/03/21 13:07:51;;;;;;;3.33;3.03;;;12.10;53.90;;;;;;5046050;28;20466;-43
2021/03/21 13:10:18;;;;;;;3.10;2.70;;;12.10;54.10;;;;;;5048209;28;20472;-43
2021/03/21 13:12:44;;;;;;;5.23;2.63;;;12.00;52.50;;;;;;5050948;28;20554;-44
2021/03/21 13:15:12;;;;;;;3.67;2.83;;;12.00;52.40;;;;;;5050090;28;20493;-44
2021/03/21 13:17:38;;;;;;;3.93;2.97;;;12.10;52.00;;;;;;5065116;28;20496;-44
2021/03/21 13:20:10;;;;;;;5.37;4.07;;;12.10;52.90;;;;;;5051912;28;20482;-43
2021/03/21 13:22:39;;;;;;;6.23;4.03;;;12.10;54.10;;;;;;5047875;28;20459;-44
2021/03/21 13:25:08;;;;;;;7.50;3.70;;;12.10;55.00;;;;;;5047952;28;20505;-44
2021/03/21 13:27:34;;;;;;;6.40;3.07;;;12.00;53.70;;;;;;5049191;28;20489;-44
2021/03/21 13:30:00;;;;;;;5.90;3.17;;;11.80;54.00;;;;;;5063396;28;20629;-44
2021/03/21 13:32:26;;;;;;;4.20;3.23;;;11.70;53.80;;;;;;5048994;28;20454;-44
2021/03/21 13:34:53;;;;;;;6.43;3.23;;;11.70;54.40;;;;;;5064151;28;20955;-43
2021/03/21 13:37:21;;;;;;;6.03;3.23;;;11.70;54.30;;;;;;5043853;28;20504;-44
2021/03/21 13:39:52;;;;;;;5.23;3.40;;;11.60;54.70;;;;;;5049328;28;20546;-44
2021/03/21 13:42:20;;;;;;;4.50;2.83;;;11.60;55.00;;;;;;5046528;28;20516;-43
2021/03/21 13:44:47;;;;;;;6.10;3.00;;;11.70;53.40;;;;;;5048866;28;20454;-44
2021/03/21 13:47:13;;;;;;;6.47;3.33;;;11.70;54.00;;;;;;5045651;28;20473;-43